Terminal Aerodrome Forecast
Issued by NWS

Home | Current Version | Previous Version | Text Only | Print | Product List | Glossary On
Versions: 1 2 3 4 5 6 7 8 9 10 11 12 13 14 15 16
000
FTUS42 KFFC 300523
TAFFTY
TAF
KFTY 300523Z 3006/3106 22005KT P6SM SCT025 OVC035
      TEMPO 3006/3009 32012G20KT P6SM BKN025
     FM300900 32013G22KT P6SM OVC020
     FM301200 32014KT P6SM SCT040
     FM301500 32014G24KT P6SM SCT150
     FM310000 33004KT P6SM SKC=

USA.gov is the U.S. government's official web portal to all federal, state and local government web resources and services.